Time;durP1;ratioP1;P1;durP2;ratioP2;P2;SDS_P1;SDS_P2;PMS_P1;PMS_P2;Temp;Humidity;BMP_temperature;BMP_pressure;BME280_temperature;BME280_humidity;BME280_pressure;Samples;Min_cycle;Max_cycle;Signal;HPM_P1;HPM_P2
2022/11/09 00:01:04;;;;;;;45.50;27.73;;;;;;;7.65;80.91;100179.26;2313201;77;32212;-59
2022/11/09 00:04:06;;;;;;;49.30;29.90;;;;;;;7.66;81.01;100174.33;2313454;77;33779;-59
2022/11/09 00:07:08;;;;;;;46.53;28.50;;;;;;;7.70;81.08;100173.73;2313108;77;29939;-60
2022/11/09 00:10:10;;;;;;;45.12;28.85;;;;;;;7.73;81.17;100167.84;2313853;76;27663;-60
2022/11/09 00:13:11;;;;;;;49.15;28.80;;;;;;;7.77;81.13;100177.91;2313568;77;29015;-59
2022/11/09 00:16:16;;;;;;;46.85;29.65;;;;;;;7.81;81.29;100162.64;2313641;77;31396;-59
2022/11/09 00:19:18;;;;;;;47.58;28.95;;;;;;;7.84;81.24;100166.53;2313551;77;33007;-59
2022/11/09 00:22:21;;;;;;;50.73;28.87;;;;;;;7.86;81.29;100159.34;2313217;76;29908;-59
2022/11/09 00:25:22;;;;;;;48.28;27.87;;;;;;;7.88;81.27;100156.14;2313608;77;27635;-62
2022/11/09 00:28:24;;;;;;;45.95;28.90;;;;;;;7.90;81.37;100165.81;2313521;77;28694;-59
2022/11/09 00:31:26;;;;;;;47.35;28.52;;;;;;;7.93;81.38;100159.95;2313303;76;31389;-59
2022/11/09 00:34:28;;;;;;;50.75;29.35;;;;;;;7.92;81.34;100153.77;2313040;76;33014;-59
2022/11/09 00:37:30;;;;;;;47.23;30.30;;;;;;;7.95;81.34;100162.95;2313986;76;29942;-59
2022/11/09 00:40:32;;;;;;;49.03;29.67;;;;;;;7.97;81.39;100165.09;2314088;76;27688;-57
2022/11/09 00:43:34;;;;;;;48.10;29.45;;;;;;;7.98;81.31;100164.64;2314267;76;28676;-58
2022/11/09 00:46:36;;;;;;;43.92;29.50;;;;;;;7.97;81.27;100155.75;2314040;76;31055;-60
2022/11/09 00:49:38;;;;;;;54.60;31.17;;;;;;;7.96;81.27;100152.68;2313141;76;32997;-57
2022/11/09 00:52:39;;;;;;;45.65;27.55;;;;;;;7.96;81.40;100150.49;2314304;76;29886;-59
2022/11/09 00:55:41;;;;;;;44.58;28.27;;;;;;;7.95;81.32;100156.28;2313624;77;27494;-59
2022/11/09 00:58:42;;;;;;;54.88;29.95;;;;;;;7.96;81.17;100159.83;2313639;77;29078;-59
2022/11/09 01:01:44;;;;;;;50.78;30.20;;;;;;;7.91;81.15;100160.88;2313513;77;32180;-60
2022/11/09 01:04:45;;;;;;;52.25;29.52;;;;;;;7.90;81.39;100161.80;2313471;77;33038;-59
2022/11/09 01:07:47;;;;;;;49.40;29.75;;;;;;;7.89;81.40;100151.22;2313632;76;29375;-58
2022/11/09 01:10:48;;;;;;;48.75;30.50;;;;;;;7.89;81.54;100156.07;2313593;77;27695;-58
2022/11/09 01:13:50;;;;;;;50.48;30.48;;;;;;;7.89;81.56;100148.55;2313475;77;29057;-59
2022/11/09 01:16:52;;;;;;;48.78;28.92;;;;;;;7.90;81.81;100144.95;2313279;76;31029;-59
2022/11/09 01:19:53;;;;;;;53.42;32.63;;;;;;;7.92;81.83;100145.77;2313443;76;34084;-60
2022/11/09 01:22:55;;;;;;;51.83;32.35;;;;;;;7.92;81.81;100144.42;2313552;77;29870;-64
2022/11/09 01:26:00;;;;;;;56.23;32.10;;;;;;;7.93;81.72;100155.95;2313596;76;27664;-65
2022/11/09 01:29:02;;;;;;;51.45;33.35;;;;;;;7.91;81.62;100156.88;2313388;76;29081;-59
2022/11/09 01:32:03;;;;;;;51.83;31.80;;;;;;;7.89;81.54;100150.73;2312997;77;32242;-59
2022/11/09 01:35:08;;;;;;;48.70;31.02;;;;;;;7.84;81.28;100146.08;2314479;76;33315;-59
2022/11/09 01:38:09;;;;;;;54.95;32.05;;;;;;;7.78;81.17;100140.98;2317424;76;28728;-58
2022/11/09 01:41:19;;;;;;;55.10;33.15;;;;;;;7.73;81.15;100151.84;2316914;76;27667;-58
2022/11/09 01:44:21;;;;;;;50.03;31.77;;;;;;;7.69;80.93;100145.36;2317112;76;28636;-58
2022/11/09 01:47:24;;;;;;;56.85;33.85;;;;;;;7.63;80.90;100153.59;2316626;76;31894;-58
2022/11/09 01:50:49;;;;;;;56.88;34.40;;;;;;;7.58;80.85;100143.98;2316696;76;33759;-58
2022/11/09 01:53:55;;;;;;;51.73;31.63;;;;;;;7.53;80.80;100141.09;2316065;76;28484;-64
2022/11/09 01:57:02;;;;;;;49.77;31.45;;;;;;;7.49;80.82;100133.70;2316542;76;27667;-58
2022/11/09 02:00:09;;;;;;;56.68;33.53;;;;;;;7.46;80.75;100132.48;2316902;76;29834;-58
2022/11/09 02:03:16;;;;;;;55.45;32.70;;;;;;;7.42;80.73;100124.19;2316687;76;31016;-59
2022/11/09 02:06:19;;;;;;;58.00;34.70;;;;;;;7.38;80.78;100130.11;2316487;76;33848;-59
2022/11/09 02:09:32;;;;;;;56.80;34.13;;;;;;;7.36;80.76;100128.45;2316580;76;29905;-58
2022/11/09 02:12:34;;;;;;;57.05;32.67;;;;;;;7.35;80.75;100131.56;2317562;76;27612;-59
2022/11/09 02:15:37;;;;;;;51.85;32.78;;;;;;;7.31;80.75;100135.27;2316537;76;29946;-59
2022/11/09 02:18:55;;;;;;;57.03;34.83;;;;;;;7.30;80.75;100141.07;2316413;76;32434;-59
2022/11/09 02:21:57;;;;;;;58.00;33.18;;;;;;;7.29;80.69;100133.12;2316420;76;33330;-59
2022/11/09 02:24:59;;;;;;;53.52;33.28;;;;;;;7.25;80.73;100135.05;2316413;76;29166;-59
2022/11/09 02:28:00;;;;;;;57.20;34.33;;;;;;;7.25;80.82;100130.20;2317369;76;27550;-62
2022/11/09 02:31:04;;;;;;;58.63;36.35;;;;;;;7.23;80.82;100127.57;2316345;76;29859;-60
2022/11/09 02:34:13;;;;;;;58.70;34.35;;;;;;;7.22;80.82;100130.31;2316759;76;31406;-60
2022/11/09 02:37:32;;;;;;;57.23;35.33;;;;;;;7.20;80.86;100125.50;2316405;76;33771;-60
2022/11/09 02:40:36;;;;;;;51.95;32.78;;;;;;;7.19;80.88;100131.75;2316610;76;29125;-65
2022/11/09 02:43:38;;;;;;;54.33;33.33;;;;;;;7.18;80.93;100128.68;2316948;76;27611;-62
2022/11/09 02:46:41;;;;;;;55.78;32.48;;;;;;;7.18;80.98;100133.56;2316867;76;29837;-57
2022/11/09 02:49:42;;;;;;;56.63;32.53;;;;;;;7.17;80.95;100125.61;2316519;76;32322;-66
2022/11/09 02:52:44;;;;;;;53.23;32.50;;;;;;;7.16;80.98;100132.75;2316764;76;34098;-62
2022/11/09 02:55:45;;;;;;;59.18;35.43;;;;;;;7.16;80.94;100132.75;2316317;76;29299;-57
2022/11/09 02:58:47;;;;;;;49.55;31.93;;;;;;;7.16;80.90;100143.41;2317275;76;27656;-57
2022/11/09 03:01:49;;;;;;;52.23;31.68;;;;;;;7.13;80.87;100138.19;2316412;76;29851;-57
2022/11/09 03:04:50;;;;;;;48.87;32.03;;;;;;;7.10;80.85;100136.97;2301686;76;33199;-57
2022/11/09 03:07:52;;;;;;;50.60;30.88;;;;;;;7.08;80.77;100129.48;2316864;76;33398;-59
2022/11/09 03:10:54;;;;;;;50.83;32.40;;;;;;;7.04;80.77;100134.52;2317302;76;28743;-60
2022/11/09 03:13:56;;;;;;;52.65;31.33;;;;;;;7.01;80.79;100136.84;2317320;76;27625;-59
2022/11/09 03:16:57;;;;;;;52.75;33.63;;;;;;;6.97;80.83;100140.09;2316509;76;28709;-59
2022/11/09 03:19:59;;;;;;;57.62;32.23;;;;;;;6.94;80.84;100148.20;2316389;76;32331;-57
2022/11/09 03:23:01;;;;;;;50.30;32.63;;;;;;;6.91;80.82;100144.31;2316322;76;34144;-58
2022/11/09 03:26:03;;;;;;;56.45;33.20;;;;;;;6.87;80.74;100145.34;2316329;76;29318;-58
2022/11/09 03:29:04;;;;;;;60.05;33.38;;;;;;;6.84;80.96;100150.80;2316608;76;27651;-58
2022/11/09 03:32:06;;;;;;;56.02;33.28;;;;;;;6.80;80.96;100154.50;2316382;76;29512;-57
2022/11/09 03:35:09;;;;;;;54.35;34.30;;;;;;;6.75;81.01;100152.00;2316362;76;32233;-57
2022/11/09 03:38:11;;;;;;;56.42;33.58;;;;;;;6.73;80.98;100150.30;2316310;76;33090;-58
2022/11/09 03:41:13;;;;;;;52.93;33.23;;;;;;;6.69;81.02;100154.88;2316432;76;28786;-58
2022/11/09 03:44:14;;;;;;;55.58;33.75;;;;;;;6.64;80.97;100155.05;2316699;76;27641;-58
2022/11/09 03:47:16;;;;;;;58.98;34.38;;;;;;;6.61;81.00;100156.96;2316722;76;29058;-57
2022/11/09 03:50:18;;;;;;;52.67;32.55;;;;;;;6.57;80.90;100156.66;2316925;76;31593;-58
2022/11/09 03:53:20;;;;;;;51.55;32.63;;;;;;;6.53;80.87;100154.58;2316429;76;33414;-57
2022/11/09 03:56:22;;;;;;;53.90;34.63;;;;;;;6.48;80.97;100149.86;2316877;76;29314;-58
2022/11/09 03:59:23;;;;;;;49.70;32.15;;;;;;;6.44;80.95;100145.56;2316571;76;27664;-58
2022/11/09 04:02:25;;;;;;;57.60;32.98;;;;;;;6.40;80.92;100143.48;2316275;76;28480;-59
2022/11/09 04:05:27;;;;;;;54.08;34.18;;;;;;;6.36;81.02;100136.52;2316371;76;32219;-60
2022/11/09 04:08:28;;;;;;;57.00;35.25;;;;;;;6.32;80.96;100130.89;2316237;76;33376;-58
2022/11/09 04:11:30;;;;;;;58.52;33.45;;;;;;;6.27;80.95;100134.19;2316635;76;28742;-58
2022/11/09 04:14:31;;;;;;;55.17;33.55;;;;;;;6.21;80.90;100128.16;2317024;76;27680;-59
2022/11/09 04:17:33;;;;;;;57.33;35.40;;;;;;;6.17;80.99;100133.64;2316792;76;28665;-58
2022/11/09 04:20:35;;;;;;;56.15;34.67;;;;;;;6.12;81.01;100136.91;2316916;76;31392;-58
2022/11/09 04:23:36;;;;;;;61.05;36.30;;;;;;;6.06;80.93;100130.86;2316518;76;34176;-57
2022/11/09 04:26:38;;;;;;;55.28;33.42;;;;;;;6.02;81.19;100129.25;2316672;76;29983;-60
2022/11/09 04:29:41;;;;;;;67.45;35.78;;;;;;;6.00;81.20;100135.08;2316712;76;27664;-59
2022/11/09 04:32:42;;;;;;;70.97;43.30;;;;;;;5.96;81.35;100129.41;2316371;76;29703;-59
2022/11/09 04:35:44;;;;;;;58.25;36.23;;;;;;;5.95;81.59;100129.47;2315802;76;31440;-62
2022/11/09 04:38:46;;;;;;;59.10;35.35;;;;;;;5.94;81.64;100129.91;2312745;77;33369;-59
2022/11/09 04:41:47;;;;;;;60.52;34.65;;;;;;;5.91;81.41;100126.02;2312663;76;28825;-58
2022/11/09 04:44:49;;;;;;;54.67;33.13;;;;;;;5.86;81.25;100127.52;2312375;76;27687;-59
2022/11/09 04:47:57;;;;;;;54.40;31.65;;;;;;;5.82;81.25;100120.55;2312191;77;30034;-58
2022/11/09 04:51:05;;;;;;;55.78;32.90;;;;;;;5.78;81.26;100118.46;2312665;77;30523;-64
2022/11/09 04:54:07;;;;;;;44.85;30.15;;;;;;;5.73;81.10;100114.22;2312466;77;33750;-64
2022/11/09 04:57:08;;;;;;;53.35;32.23;;;;;;;5.67;81.07;100106.44;2312820;77;29367;-59
2022/11/09 05:00:11;;;;;;;54.03;34.27;;;;;;;5.62;81.12;100103.49;2312936;77;27609;-60
2022/11/09 05:03:13;;;;;;;55.63;32.75;;;;;;;5.59;81.28;100111.55;2312718;77;28641;-59
2022/11/09 05:06:33;;;;;;;61.18;35.40;;;;;;;5.55;81.31;100117.00;2312305;77;31422;-59
2022/11/09 05:09:35;;;;;;;59.00;34.27;;;;;;;5.52;81.51;100113.13;2312641;77;33388;-58
2022/11/09 05:12:36;;;;;;;57.50;35.35;;;;;;;5.52;81.87;100111.80;2312847;76;29385;-59
2022/11/09 05:15:39;;;;;;;59.63;36.38;;;;;;;5.54;81.83;100105.98;2312536;76;27685;-58
2022/11/09 05:18:41;;;;;;;60.80;33.38;;;;;;;5.54;81.87;100117.94;2312304;76;30073;-59
2022/11/09 05:21:42;;;;;;;68.60;39.85;;;;;;;5.55;82.00;100119.20;2312347;77;31432;-58
2022/11/09 05:24:45;;;;;;;68.55;41.25;;;;;;;5.57;82.12;100124.02;2312332;76;33824;-59
2022/11/09 05:27:47;;;;;;;67.80;39.40;;;;;;;5.60;82.39;100115.06;2312473;77;30009;-59
2022/11/09 05:30:49;;;;;;;67.87;39.83;;;;;;;5.66;82.80;100116.21;2293820;77;27621;-59
2022/11/09 05:33:53;;;;;;;65.97;38.63;;;;;;;5.75;83.12;100107.07;2312124;76;28142;-61
2022/11/09 05:36:55;;;;;;;62.80;37.65;;;;;;;5.81;83.17;100108.17;2312204;76;32213;-59
2022/11/09 05:39:57;;;;;;;68.45;39.42;;;;;;;5.85;83.03;100103.17;2312198;77;33504;-60
2022/11/09 05:42:59;;;;;;;68.35;40.15;;;;;;;5.90;83.27;100102.58;2312120;77;29091;-58
2022/11/09 05:46:01;;;;;;;64.75;39.35;;;;;;;5.94;83.25;100107.31;2312689;76;27723;-60
2022/11/09 05:49:03;;;;;;;65.20;37.17;;;;;;;5.98;83.06;100114.72;2312220;77;29858;-59
2022/11/09 05:52:05;;;;;;;62.43;38.28;;;;;;;5.99;82.93;100118.67;2312289;76;32315;-59
2022/11/09 05:55:08;;;;;;;68.52;38.75;;;;;;;5.98;82.81;100114.72;2312136;77;33051;-60
2022/11/09 05:58:10;;;;;;;59.30;37.63;;;;;;;5.96;82.73;100123.23;2312169;77;30223;-58
2022/11/09 06:01:15;;;;;;;64.53;39.25;;;;;;;5.95;82.64;100130.33;2312789;77;27632;-59
2022/11/09 06:04:17;;;;;;;57.50;35.88;;;;;;;5.93;82.63;100130.84;2312594;76;28642;-63
2022/11/09 06:07:19;;;;;;;78.92;42.95;;;;;;;5.91;82.61;100128.69;2312125;76;32270;-59
2022/11/09 06:10:20;;;;;;;71.28;43.85;;;;;;;5.89;82.78;100116.78;2312842;76;33360;-59
2022/11/09 06:13:22;;;;;;;75.78;43.42;;;;;;;5.90;82.94;100114.53;2312278;77;29080;-61
2022/11/09 06:16:24;;;;;;;72.50;41.55;;;;;;;5.89;82.93;100118.11;2312756;76;27658;-58
2022/11/09 06:19:26;;;;;;;69.07;41.05;;;;;;;5.90;82.96;100126.95;2312322;76;29906;-59
2022/11/09 06:22:28;;;;;;;73.92;42.58;;;;;;;5.88;82.95;100131.00;2312297;76;32357;-58
2022/11/09 06:25:32;;;;;;;72.15;39.70;;;;;;;5.87;82.89;100126.59;2312266;77;33291;-58
2022/11/09 06:28:34;;;;;;;68.67;40.10;;;;;;;5.89;82.92;100133.17;2312999;77;29026;-58
2022/11/09 06:31:35;;;;;;;64.05;39.03;;;;;;;5.87;82.87;100126.59;2312796;76;27596;-58
2022/11/09 06:34:37;;;;;;;70.57;39.13;;;;;;;5.86;82.87;100124.00;2312350;76;30050;-58
2022/11/09 06:37:39;;;;;;;69.58;41.37;;;;;;;5.87;83.00;100135.90;2312028;77;30997;-58
2022/11/09 06:40:40;;;;;;;76.55;45.63;;;;;;;5.87;82.86;100153.66;2312804;76;32794;-59
2022/11/09 06:43:42;;;;;;;74.58;42.08;;;;;;;5.84;82.88;100147.95;2312698;76;29023;-58
2022/11/09 06:46:44;;;;;;;70.67;40.75;;;;;;;5.85;82.93;100144.86;2312581;77;27653;-65
2022/11/09 06:49:45;;;;;;;69.37;39.55;;;;;;;5.86;83.01;100148.78;2312396;76;29925;-58
2022/11/09 06:52:49;;;;;;;71.25;40.55;;;;;;;5.89;83.24;100139.83;2312314;77;32142;-65
2022/11/09 06:55:50;;;;;;;69.45;39.65;;;;;;;5.92;83.30;100145.94;2312623;77;34142;-58
2022/11/09 06:58:52;;;;;;;70.92;40.17;;;;;;;5.95;83.20;100152.08;2312685;76;29027;-58
2022/11/09 07:01:54;;;;;;;68.52;40.83;;;;;;;5.96;83.28;100136.05;2312684;77;27708;-58
2022/11/09 07:04:56;;;;;;;63.50;38.10;;;;;;;6.00;83.45;100122.22;2312300;76;29111;-58
2022/11/09 07:08:00;;;;;;;75.50;40.50;;;;;;;6.07;83.66;100123.77;2311937;76;27708;-57
2022/11/09 07:11:12;;;;;;;69.90;39.03;;;;;;;6.15;83.81;100131.48;2312529;76;34168;-57
2022/11/09 07:14:14;;;;;;;71.05;39.13;;;;;;;6.24;84.00;100139.14;2312563;76;30159;-58
2022/11/09 07:17:16;;;;;;;69.90;39.85;;;;;;;6.34;84.10;100136.59;2312412;77;27692;-61
2022/11/09 07:20:18;;;;;;;71.85;39.75;;;;;;;6.46;84.17;100143.25;2293130;77;28882;-58
2022/11/09 07:23:20;;;;;;;76.53;40.40;;;;;;;6.58;84.19;100134.44;2312672;76;30179;-58
2022/11/09 07:26:21;;;;;;;72.37;40.70;;;;;;;6.71;84.23;100138.84;2312655;77;34184;-58
2022/11/09 07:29:23;;;;;;;77.85;39.78;;;;;;;6.84;84.24;100132.16;2312137;77;31147;-58
2022/11/09 07:32:24;;;;;;;79.62;42.83;;;;;;;6.99;84.35;100130.26;2312787;76;27715;-59
2022/11/09 07:35:26;;;;;;;69.55;39.55;;;;;;;7.15;84.28;100140.33;2312677;77;29864;-59
2022/11/09 07:38:34;;;;;;;73.25;39.65;;;;;;;7.29;84.22;100153.11;2312045;76;31593;-64
2022/11/09 07:41:39;;;;;;;69.40;38.90;;;;;;;7.41;84.04;100163.77;2311991;77;33018;-59
2022/11/09 07:44:40;;;;;;;72.62;40.28;;;;;;;7.51;84.04;100165.61;2312682;77;30177;-58
2022/11/09 07:47:42;;;;;;;65.32;38.65;;;;;;;7.65;84.10;100167.27;2312285;76;27680;-62
2022/11/09 07:50:44;;;;;;;68.37;36.63;;;;;;;7.81;84.04;100156.86;2312165;76;30073;-61
2022/11/09 07:53:46;;;;;;;63.23;37.00;;;;;;;7.94;83.81;100150.57;2312469;77;30979;-58
2022/11/09 07:56:48;;;;;;;60.40;35.40;;;;;;;8.05;83.66;100152.31;2312524;76;34099;-59
2022/11/09 07:59:52;;;;;;;71.47;42.13;;;;;;;8.20;83.75;100148.59;2312372;77;30358;-58
2022/11/09 08:02:53;;;;;;;72.05;39.53;;;;;;;8.36;83.83;100140.79;2312530;76;27664;-58
2022/11/09 08:05:56;;;;;;;65.45;38.08;;;;;;;8.54;83.85;100130.28;2312727;77;29716;-58
2022/11/09 08:08:58;;;;;;;62.98;37.03;;;;;;;8.75;83.90;100123.99;2312863;77;31005;-62
2022/11/09 08:12:00;;;;;;;65.00;36.40;;;;;;;8.98;83.78;100136.78;2312812;77;33042;-58
2022/11/09 08:15:02;;;;;;;65.47;38.48;;;;;;;9.14;83.42;100149.44;2312536;76;30195;-58
2022/11/09 08:18:12;;;;;;;65.03;37.70;;;;;;;9.33;83.60;100148.10;2312831;77;27651;-59
2022/11/09 08:21:14;;;;;;;60.65;34.98;;;;;;;9.52;83.47;100136.05;2312333;77;30037;-59
2022/11/09 08:24:17;;;;;;;53.23;32.30;;;;;;;9.75;83.55;100135.42;2312734;76;32286;-59
2022/11/09 08:27:19;;;;;;;50.55;31.30;;;;;;;9.96;83.56;100132.15;2312514;76;32954;-59
2022/11/09 08:30:21;;;;;;;51.37;32.50;;;;;;;10.16;83.08;100136.03;2312225;77;30220;-65
2022/11/09 08:33:25;;;;;;;52.55;32.65;;;;;;;10.38;83.15;100143.44;2312562;76;27646;-59
2022/11/09 08:36:28;;;;;;;50.63;30.32;;;;;;;10.58;83.04;100131.26;2312375;76;28782;-59
2022/11/09 08:39:30;;;;;;;48.70;29.82;;;;;;;10.77;82.70;100135.16;2313096;76;32284;-59
2022/11/09 08:42:32;;;;;;;52.78;30.88;;;;;;;10.93;82.34;100124.95;2313563;77;34242;-59
2022/11/09 08:45:36;;;;;;;54.77;29.07;;;;;;;11.05;82.00;100129.67;2313498;76;29414;-62
2022/11/09 08:48:38;;;;;;;54.42;30.70;;;;;;;11.17;81.84;100128.11;2313677;76;27719;-59
2022/11/09 08:51:40;;;;;;;51.33;30.97;;;;;;;11.30;81.63;100129.64;2313378;77;28725;-58
2022/11/09 08:54:42;;;;;;;48.42;30.85;;;;;;;11.43;81.48;100132.98;2313579;77;32150;-58
2022/11/09 08:57:44;;;;;;;46.33;28.17;;;;;;;11.54;81.13;100127.41;2313532;77;34113;-59
2022/11/09 09:00:45;;;;;;;50.65;30.52;;;;;;;11.68;81.01;100123.95;2313449;77;30244;-60
2022/11/09 09:03:47;;;;;;;50.98;30.65;;;;;;;11.83;81.04;100127.55;2313107;77;27656;-60
2022/11/09 09:06:49;;;;;;;49.15;30.50;;;;;;;11.97;80.60;100126.76;2313565;76;29044;-59
2022/11/09 09:09:51;;;;;;;48.98;29.92;;;;;;;12.12;80.62;100129.06;2313047;77;32365;-60
2022/11/09 09:12:53;;;;;;;50.67;32.45;;;;;;;12.27;80.48;100133.98;2312983;77;35030;-59
2022/11/09 09:15:55;;;;;;;47.48;29.67;;;;;;;12.42;80.26;100134.02;2313227;76;29093;-59
2022/11/09 09:18:57;;;;;;;45.33;29.80;;;;;;;12.54;79.53;100149.43;2313263;77;27636;-59
2022/11/09 09:22:00;;;;;;;49.98;32.67;;;;;;;12.65;79.81;100140.72;2313530;77;29074;-63
2022/11/09 09:25:02;;;;;;;52.50;30.75;;;;;;;12.73;78.99;100153.69;2313373;77;31008;-58
2022/11/09 09:28:04;;;;;;;51.73;30.70;;;;;;;12.83;79.27;100137.83;2313141;76;34250;-59
2022/11/09 09:31:06;;;;;;;55.03;31.77;;;;;;;12.94;79.20;100132.67;2313308;76;29417;-59
2022/11/09 09:34:08;;;;;;;47.00;28.27;;;;;;;13.02;78.71;100130.85;2313545;76;27640;-60
2022/11/09 09:37:10;;;;;;;47.00;30.40;;;;;;;13.06;78.36;100134.59;2314237;76;28556;-59
2022/11/09 09:40:37;;;;;;;46.45;29.65;;;;;;;13.16;78.49;100146.09;2317019;76;31405;-59
2022/11/09 09:43:44;;;;;;;46.83;30.02;;;;;;;13.25;78.16;100144.19;2315699;76;33730;-59
2022/11/09 09:46:52;;;;;;;48.63;28.92;;;;;;;13.36;78.15;100139.48;2316902;76;29851;-64
2022/11/09 09:50:07;;;;;;;47.62;30.90;;;;;;;13.44;77.96;100153.31;2315578;76;27526;-64
2022/11/09 09:53:34;;;;;;;53.13;30.17;;;;;;;13.52;77.83;100152.36;2316423;76;29750;-62
2022/11/09 09:56:41;;;;;;;51.92;28.95;;;;;;;13.58;77.66;100144.36;2316884;76;31438;-59
2022/11/09 09:59:50;;;;;;;45.45;30.48;;;;;;;13.63;77.45;100134.17;2316939;76;32959;-58
2022/11/09 10:02:53;;;;;;;46.90;29.42;;;;;;;13.72;77.36;100137.20;2316557;76;30227;-59
2022/11/09 10:06:06;;;;;;;41.33;28.02;;;;;;;13.77;77.32;100133.74;2316490;76;27721;-60
2022/11/09 10:09:38;;;;;;;44.33;28.92;;;;;;;13.82;76.95;100128.89;2317204;76;29050;-60
2022/11/09 10:13:15;;;;;;;45.67;28.85;;;;;;;13.86;76.68;100132.27;2316531;76;31434;-59
2022/11/09 10:16:34;;;;;;;42.13;27.77;;;;;;;13.90;76.50;100123.03;2316459;76;34242;-59
2022/11/09 10:19:56;;;;;;;52.48;29.42;;;;;;;13.89;76.08;100130.23;2316732;76;29059;-59
2022/11/09 10:23:29;;;;;;;39.85;26.48;;;;;;;13.91;76.14;100116.66;2316474;76;27667;-59
2022/11/09 10:26:46;;;;;;;42.55;26.20;;;;;;;13.97;76.24;100121.17;2316995;76;29059;-59
2022/11/09 10:29:48;;;;;;;42.10;28.85;;;;;;;14.04;76.16;100126.13;2316963;76;31426;-59
2022/11/09 10:32:57;;;;;;;49.08;29.95;;;;;;;14.17;76.06;100117.59;2262863;76;33392;-59
2022/11/09 10:36:24;;;;;;;46.37;28.80;;;;;;;14.28;75.44;100126.30;2302222;76;29879;-60
2022/11/09 10:39:30;;;;;;;36.83;23.25;;;;;;;14.28;75.44;100126.30;2316409;76;27808;-59
2022/11/09 10:42:32;;;;;;;36.68;23.18;;;;;;;14.36;74.62;100115.88;2316563;76;29331;-59
2022/11/09 10:45:37;;;;;;;33.55;20.97;;;;;;;14.36;74.62;100115.88;2316460;76;31202;-64
2022/11/09 10:48:40;;;;;;;34.38;22.70;;;;;;;14.50;74.58;100102.78;2316815;76;32953;-59
2022/11/09 10:51:47;;;;;;;30.75;21.25;;;;;;;14.77;74.38;100123.44;2316839;76;29687;-59
2022/11/09 10:54:49;;;;;;;37.95;23.02;;;;;;;14.90;73.91;100120.72;2316822;76;27620;-60
2022/11/09 10:58:17;;;;;;;31.02;21.62;;;;;;;14.99;73.32;100123.25;2316819;76;28477;-62
2022/11/09 11:01:22;;;;;;;30.23;20.30;;;;;;;15.06;73.29;100121.85;2316496;76;31104;-61
2022/11/09 11:04:24;;;;;;;;;;;;;;;15.17;73.14;100121.94;2319708;76;33367;-59
2022/11/09 11:07:26;;;;;;;30.70;21.00;;;;;;;15.26;72.43;100115.52;2316967;76;29078;-59
2022/11/09 11:10:28;;;;;;;28.95;19.90;;;;;;;15.28;72.23;100112.22;2316852;76;27566;-59
2022/11/09 11:13:30;;;;;;;32.20;20.88;;;;;;;15.33;72.28;100115.42;2316460;76;29926;-59
2022/11/09 11:16:35;;;;;;;38.78;22.77;;;;;;;15.37;72.01;100115.59;2316865;76;31239;-59
2022/11/09 11:19:40;;;;;;;;;;;;;;;15.43;71.65;100115.63;2319495;76;33132;-58
2022/11/09 11:22:41;;;;;;;34.27;22.58;;;;;;;15.49;71.30;100105.73;2316846;76;29026;-59
2022/11/09 11:26:03;;;;;;;32.98;21.37;;;;;;;15.52;70.74;100095.19;2316412;76;27703;-62
2022/11/09 11:29:48;;;;;;;33.20;21.85;;;;;;;15.55;70.60;100105.77;2316103;76;29758;-59
2022/11/09 11:32:50;;;;;;;30.32;20.32;;;;;;;15.62;70.70;100104.34;2316267;76;31901;-59
2022/11/09 11:36:25;;;;;;;30.35;20.40;;;;;;;15.65;70.39;100096.88;2316662;76;33062;-59
2022/11/09 11:39:53;;;;;;;33.95;20.37;;;;;;;15.71;69.78;100092.84;2311930;76;30262;-59
2022/11/09 11:43:03;;;;;;;28.80;19.90;;;;;;;15.75;69.86;100082.20;2312232;76;27588;-59
2022/11/09 11:46:30;;;;;;;28.95;19.57;;;;;;;15.80;69.16;100097.55;2312363;76;29868;-60
2022/11/09 11:49:39;;;;;;;31.68;20.20;;;;;;;15.88;69.51;100117.30;2312113;76;31881;-59
2022/11/09 11:53:25;;;;;;;33.33;20.57;;;;;;;16.03;69.40;100129.27;2311999;77;33824;-60
2022/11/09 11:56:51;;;;;;;30.10;19.02;;;;;;;16.12;68.97;100119.10;2312838;76;34608;-62
2022/11/09 12:00:14;;;;;;;27.20;19.02;;;;;;;16.14;68.46;100110.87;2312190;76;27656;-59
2022/11/09 12:03:59;;;;;;;31.95;20.30;;;;;;;16.19;68.69;100114.09;2312382;76;27635;-59
2022/11/09 12:07:23;;;;;;;30.82;20.37;;;;;;;16.21;68.56;100110.31;2191960;81;31863;-60
2022/11/09 12:10:53;;;;;;;32.30;19.60;;;;;;;16.20;67.93;100107.70;2191702;81;33048;-59
2022/11/09 12:14:06;;;;;;;31.93;19.77;;;;;;;16.19;67.90;100110.91;2149342;82;29007;-59
2022/11/09 12:17:16;;;;;;;27.40;19.48;;;;;;;16.15;67.90;100116.64;2168053;82;27816;-59
2022/11/09 12:20:42;;;;;;;31.25;19.60;;;;;;;16.11;67.28;100120.08;2149759;82;29538;-64
2022/11/09 12:24:17;;;;;;;28.47;17.85;;;;;;;16.09;67.43;100120.69;2164595;81;32254;-59
2022/11/09 12:27:54;;;;;;;30.52;18.50;;;;;;;16.07;67.19;100116.76;2149750;82;32971;-59
2022/11/09 12:31:04;;;;;;;29.65;18.73;;;;;;;16.04;66.87;100107.53;2168439;82;29982;-60
2022/11/09 12:34:32;;;;;;;26.50;18.87;;;;;;;16.05;67.11;100110.61;2149881;82;27873;-59
2022/11/09 12:37:43;;;;;;;26.87;18.77;;;;;;;16.09;66.98;100105.82;2161952;82;27842;-60
2022/11/09 12:41:05;;;;;;;29.48;19.27;;;;;;;16.12;65.84;100105.59;2149548;82;30872;-60
2022/11/09 12:44:21;;;;;;;28.83;18.15;;;;;;;16.11;65.87;100095.76;2216723;80;33066;-59
2022/11/09 12:47:28;;;;;;;32.15;19.62;;;;;;;16.09;65.51;100089.61;2245793;79;29036;-59
2022/11/09 12:50:31;;;;;;;28.23;18.77;;;;;;;16.08;65.42;100097.34;2265103;78;28270;-59
2022/11/09 12:53:36;;;;;;;27.20;18.92;;;;;;;16.05;65.27;100092.19;2247307;79;29052;-59
2022/11/09 12:56:43;;;;;;;24.98;17.45;;;;;;;16.03;65.20;100094.99;2265403;78;31407;-59
2022/11/09 12:59:52;;;;;;;28.38;20.57;;;;;;;15.99;64.86;100096.70;2246241;79;33218;-59
2022/11/09 13:03:02;;;;;;;32.38;18.82;;;;;;;15.91;64.93;100090.02;2265663;78;28850;-62
2022/11/09 13:06:26;;;;;;;28.90;19.40;;;;;;;15.85;64.75;100087.80;2247029;79;28208;-59
2022/11/09 13:09:29;;;;;;;33.30;20.12;;;;;;;15.77;64.53;100087.00;2265307;78;28695;-65
2022/11/09 13:12:35;;;;;;;30.77;19.82;;;;;;;15.70;64.36;100093.82;2246721;79;31882;-60
2022/11/09 13:15:39;;;;;;;28.57;19.52;;;;;;;15.61;64.30;100087.77;2265484;78;33726;-60
2022/11/09 13:18:46;;;;;;;28.55;20.45;;;;;;;15.51;64.37;100097.04;2246676;79;29883;-60
2022/11/09 13:21:47;;;;;;;31.37;20.25;;;;;;;15.42;64.31;100093.17;2265710;78;27591;-60
2022/11/09 13:24:59;;;;;;;35.83;20.97;;;;;;;15.32;64.16;100086.23;2246887;79;29377;-61
2022/11/09 13:28:01;;;;;;;33.23;21.65;;;;;;;15.22;63.88;100089.72;2265357;78;32199;-60
2022/11/09 13:31:03;;;;;;;33.45;20.95;;;;;;;15.09;63.90;100087.03;2246676;79;32630;-59
2022/11/09 13:34:39;;;;;;;31.20;20.37;;;;;;;15.00;63.91;100098.88;2265226;78;30163;-62
2022/11/09 13:37:46;;;;;;;29.07;20.20;;;;;;;14.92;63.87;100097.70;2205863;80;27712;-61
2022/11/09 13:40:50;;;;;;;33.42;20.88;;;;;;;14.80;63.93;100098.95;2208727;80;29937;-61
2022/11/09 13:44:18;;;;;;;42.33;24.40;;;;;;;14.68;63.78;100097.10;2209145;80;31981;-61
2022/11/09 13:47:27;;;;;;;38.88;23.70;;;;;;;14.57;63.88;100097.81;2208928;80;34015;-59
2022/11/09 13:50:31;;;;;;;38.53;23.90;;;;;;;14.48;64.35;100102.52;2226562;79;29019;-60
2022/11/09 13:54:02;;;;;;;40.95;26.55;;;;;;;14.40;64.40;100100.34;2217074;80;27767;-59
2022/11/09 13:57:06;;;;;;;36.15;22.58;;;;;;;14.32;64.55;100102.70;2216952;80;28701;-60
2022/11/09 14:00:22;;;;;;;38.90;24.00;;;;;;;14.22;64.50;100111.92;2216762;80;32088;-59
2022/11/09 14:03:27;;;;;;;34.78;22.60;;;;;;;14.13;64.57;100111.56;2216711;80;34445;-60
2022/11/09 14:06:29;;;;;;;37.80;22.52;;;;;;;14.03;64.44;100115.86;2190683;80;29036;-62
2022/11/09 14:09:48;;;;;;;34.45;22.48;;;;;;;13.92;64.21;100118.38;2217036;80;27665;-60
2022/11/09 14:13:20;;;;;;;42.20;23.35;;;;;;;13.79;64.17;100112.47;2215648;80;28656;-60